Alba, TX (75410)

5:00 PM CDT on September 04, 2015 (GMT -0500)
Ray Branch - Lake Fork | | Change Station
CLOSE
Current Station
Personal Weather Station
Location: Alba, TX
Elevation: 420 ft
Nearby Weather Stations

Elev 420 ft 32.81 °N, 95.58 °W | Updated 14 minutes ago

Partly Cloudy
Partly Cloudy
94.0 °F
Feels Like 103 °F
N
3.0
Wind Variable Wind from South
Gusts 5.0 mph

Today
High -- | Low -- °F
--% Chance of Precip.
Yesterday
High -- | Low -- °F
Precip. -- in
6:59 AM 7:43 PM
Waning Gibbous, 55% visible
Pressure 29.93 in
Visibility 10.0 miles
Clouds Scattered Clouds 8000 ft
Heat Index 103 °F
Dew Point 73 °F
Humidity 50%
Rainfall 0.00 in
Snow Depth Not available.
UV 2.9 out of 12
Pollen 10.20 out of 12
Air Quality Not available.
Flu Activity Not available.
METAR KJDD 042155Z AUTO 17006KT 10SM SCT080 33/19 A2993 RMK AO2
Pressure 29.93 in
Visibility 10.0 miles
Clouds Scattered Clouds 8000 ft
Heat Index 103 °F
Dew Point 73 °F
Humidity 50%
Rainfall 0.00 in
Snow Depth Not available.
UV 2.9 out of 12
Pollen 10.20 out of 12
Air Quality Not available.
Flu Activity Not available.
METAR KJDD 042155Z AUTO 17006KT 10SM SCT080 33/19 A2993 RMK AO2
Nowcast | as of 4:37 PM CDT on September 4, 2015

Widely scattered showers are occurring in East Texas...central louisana...southwestern Arkansas and southeast Oklahoma... these showers are moving to the NW at 20 mph...some showers can have brief heavy rain and lightning.

×

10-Day Weather Forecast

×

Almanac

Astronomy

Sep. 04, 2015 Rise Set
Actual Time
Civil Twilight
Nautical Twilight
Astronomical Twilight
Moon
Length of Visible Light
Length of Day
Tomorrow will be .
, % of the Moon is Illuminated

Today's Extremes

State Highs State Lows

Community

WunderPhotos

Upload Photos

1,852,305 photos uploaded!

WunderBlogs® & News

Nearby

Air Quality

  Air Quality AQ Index Pollutant
Not available.

Snow Depth

Station Depth Elevation

Earthquake Activity

City Distance Mag. Time & Date
Minimum magnitude displayed is 2.5.

Coastal Water Temperatures

Place Temperature

Stations

Nearby Weather Stations

Station Location Temp. Windchill Dew Point Humidity Wind Precip. Elev Updated Type